Time;durP1;ratioP1;P1;durP2;ratioP2;P2;SDS_P1;SDS_P2;PMS_P1;PMS_P2;Temp;Humidity;BMP_temperature;BMP_pressure;BME280_temperature;BME280_humidity;BME280_pressure;Samples;Min_cycle;Max_cycle;Signal;HPM_P1;HPM_P2
2023/09/14 00:00:15;;;;;;;7.22;4.05;;;14.20;99.90;;;;;;4981130;28;20034;-59
2023/09/14 00:02:41;;;;;;;10.32;3.78;;;14.30;99.90;;;;;;4986806;28;20030;-59
2023/09/14 00:05:07;;;;;;;9.75;4.05;;;14.30;99.90;;;;;;4984655;28;20023;-56
2023/09/14 00:07:32;;;;;;;10.75;4.13;;;14.30;99.90;;;;;;4983639;28;20029;-57
2023/09/14 00:10:01;;;;;;;10.43;3.55;;;14.30;99.90;;;;;;4987370;28;20035;-59
2023/09/14 00:12:26;;;;;;;6.40;4.18;;;14.30;99.90;;;;;;4986364;28;20374;-58
2023/09/14 00:14:52;;;;;;;8.75;4.18;;;14.30;99.90;;;;;;4991939;28;20069;-59
2023/09/14 00:17:17;;;;;;;5.97;3.53;;;14.30;99.90;;;;;;4985762;28;20022;-58
2023/09/14 00:19:43;;;;;;;12.18;3.88;;;14.30;99.90;;;;;;4989627;28;20031;-59
2023/09/14 00:22:09;;;;;;;9.32;4.88;;;14.30;99.90;;;;;;4991582;28;20089;-59
2023/09/14 00:24:36;;;;;;;10.70;5.00;;;14.30;99.90;;;;;;4990046;28;20018;-59
2023/09/14 00:27:02;;;;;;;9.68;4.00;;;14.30;99.90;;;;;;4991179;28;20023;-56
2023/09/14 00:29:27;;;;;;;7.35;4.35;;;14.30;99.90;;;;;;4988171;28;20053;-59
2023/09/14 00:31:53;;;;;;;12.05;4.68;;;14.30;99.90;;;;;;4988685;28;20117;-55
2023/09/14 00:34:18;;;;;;;9.70;4.25;;;14.20;99.90;;;;;;4990494;28;20044;-57
2023/09/14 00:36:44;;;;;;;8.50;4.30;;;14.20;99.90;;;;;;4989805;28;20027;-58
2023/09/14 00:39:10;;;;;;;17.48;4.45;;;14.10;99.90;;;;;;4988641;28;20100;-58
2023/09/14 00:41:35;;;;;;;10.80;4.68;;;14.10;99.90;;;;;;4979252;28;20033;-59
2023/09/14 00:44:01;;;;;;;13.73;4.78;;;14.00;99.90;;;;;;4985073;28;20113;-56
2023/09/14 00:46:27;;;;;;;6.80;4.43;;;13.90;99.90;;;;;;4979863;28;20038;-59
2023/09/14 00:48:53;;;;;;;10.50;4.93;;;13.90;99.90;;;;;;4982020;28;20022;-59
2023/09/14 00:51:19;;;;;;;17.83;5.63;;;13.80;99.90;;;;;;4982033;28;20484;-59
2023/09/14 00:53:45;;;;;;;11.63;4.30;;;13.80;99.90;;;;;;4980740;28;20030;-59
2023/09/14 00:56:11;;;;;;;23.90;6.00;;;13.70;99.90;;;;;;4982160;28;20504;-57
2023/09/14 00:58:38;;;;;;;15.82;5.20;;;13.70;99.90;;;;;;4982013;28;20030;-60
2023/09/14 01:01:04;;;;;;;9.73;5.18;;;13.70;99.90;;;;;;4980213;28;20034;-59
2023/09/14 01:03:30;;;;;;;17.15;5.32;;;13.70;99.90;;;;;;4981706;28;20030;-58
2023/09/14 01:05:58;;;;;;;8.40;4.80;;;13.70;99.90;;;;;;4987701;28;20033;-59
2023/09/14 01:08:23;;;;;;;13.55;5.57;;;13.70;99.90;;;;;;4981178;28;20548;-58
2023/09/14 01:10:49;;;;;;;12.80;5.53;;;13.60;99.90;;;;;;4980036;28;20030;-57
2023/09/14 01:13:49;;;;;;;15.77;4.50;;;13.50;99.90;;;;;;4985193;28;20041;-56
2023/09/14 01:16:26;;;;;;;13.00;4.78;;;13.60;99.90;;;;;;4931835;28;20038;-57
2023/09/14 01:19:01;;;;;;;11.98;5.22;;;13.60;99.90;;;;;;4981420;28;20026;-55
2023/09/14 01:21:30;;;;;;;7.45;5.25;;;13.60;99.90;;;;;;4976940;28;20046;-59
2023/09/14 01:24:20;;;;;;;7.90;4.57;;;13.50;99.90;;;;;;4979781;28;20033;-55
2023/09/14 01:26:45;;;;;;;16.88;5.10;;;13.50;99.90;;;;;;4980255;28;20038;-58
2023/09/14 01:29:11;;;;;;;15.52;5.28;;;13.50;99.90;;;;;;4980042;28;20137;-59
2023/09/14 01:31:38;;;;;;;7.93;4.88;;;13.50;99.90;;;;;;4977626;28;20488;-53
2023/09/14 01:34:03;;;;;;;12.77;4.60;;;13.40;99.90;;;;;;4986123;28;20026;-59
2023/09/14 01:36:52;;;;;;;10.23;4.47;;;13.40;99.90;;;;;;4977569;28;20667;-58
2023/09/14 01:39:18;;;;;;;9.73;4.57;;;13.40;99.90;;;;;;4977314;28;20405;-55
2023/09/14 01:41:44;;;;;;;13.05;4.72;;;13.40;99.90;;;;;;4971523;28;20038;-58
2023/09/14 01:44:11;;;;;;;9.02;5.00;;;13.30;99.90;;;;;;4974420;28;20369;-58
2023/09/14 01:46:38;;;;;;;17.90;5.03;;;13.20;99.90;;;;;;4975737;28;20053;-58
2023/09/14 01:49:04;;;;;;;9.70;4.63;;;13.20;99.90;;;;;;4971180;28;20033;-56
2023/09/14 01:51:29;;;;;;;9.90;4.70;;;13.20;99.90;;;;;;4976667;28;20042;-57
2023/09/14 01:53:55;;;;;;;11.55;5.20;;;13.20;99.90;;;;;;4978335;28;20492;-58
2023/09/14 01:56:21;;;;;;;13.38;4.85;;;13.20;99.90;;;;;;4979395;28;20038;-59
2023/09/14 01:58:46;;;;;;;9.18;4.55;;;13.20;99.90;;;;;;4981452;28;20093;-56
2023/09/14 02:01:12;;;;;;;10.25;4.63;;;13.10;99.90;;;;;;4982840;28;20491;-59
2023/09/14 02:03:37;;;;;;;14.13;4.55;;;13.20;99.90;;;;;;4986050;28;20030;-57
2023/09/14 02:06:03;;;;;;;10.25;4.80;;;13.20;99.90;;;;;;4988962;28;20436;-57
2023/09/14 02:08:30;;;;;;;9.48;4.35;;;13.10;99.90;;;;;;4982871;28;20035;-56
2023/09/14 02:10:56;;;;;;;8.38;4.63;;;13.10;99.90;;;;;;4983796;28;20030;-56
2023/09/14 02:13:21;;;;;;;7.07;4.15;;;13.10;99.90;;;;;;4983847;28;20385;-57
2023/09/14 02:15:47;;;;;;;9.27;5.00;;;13.10;99.90;;;;;;4980682;28;20583;-56
2023/09/14 02:18:13;;;;;;;12.90;5.15;;;13.10;99.90;;;;;;4984211;28;20026;-52
2023/09/14 02:20:41;;;;;;;9.48;4.63;;;13.10;99.90;;;;;;4981742;28;20042;-55
2023/09/14 02:23:08;;;;;;;9.05;4.43;;;13.00;99.90;;;;;;4975489;28;21881;-57
2023/09/14 02:25:34;;;;;;;7.63;4.70;;;13.10;99.90;;;;;;4972488;28;20403;-56
2023/09/14 02:27:59;;;;;;;10.88;4.40;;;13.00;99.90;;;;;;4968159;28;20026;-58
2023/09/14 02:30:26;;;;;;;8.82;3.80;;;13.00;99.90;;;;;;4979735;28;20030;-56
2023/09/14 02:32:52;;;;;;;9.00;4.50;;;12.90;99.90;;;;;;4986540;28;20027;-52
2023/09/14 02:35:17;;;;;;;10.48;4.45;;;12.90;99.90;;;;;;4987865;28;20037;-57
2023/09/14 02:37:44;;;;;;;8.23;5.03;;;13.00;99.90;;;;;;4987638;28;20035;-55
2023/09/14 02:40:10;;;;;;;10.02;4.75;;;12.90;99.90;;;;;;4983750;28;20026;-55
2023/09/14 02:42:37;;;;;;;8.25;4.63;;;12.90;99.90;;;;;;4983649;28;20073;-57
2023/09/14 02:45:04;;;;;;;14.55;4.95;;;13.00;99.90;;;;;;4983652;28;20050;-57
2023/09/14 02:47:29;;;;;;;9.68;4.57;;;12.90;99.90;;;;;;4986806;28;20709;-56
2023/09/14 02:49:55;;;;;;;11.15;4.65;;;12.90;99.90;;;;;;4983930;28;20054;-57
2023/09/14 02:52:20;;;;;;;10.43;4.78;;;12.80;99.90;;;;;;4985840;28;20104;-55
2023/09/14 02:54:46;;;;;;;12.10;5.03;;;12.90;99.90;;;;;;4988700;28;20061;-57
2023/09/14 02:57:11;;;;;;;11.20;4.80;;;12.90;99.90;;;;;;4983853;28;20081;-53
2023/09/14 02:59:37;;;;;;;12.07;4.20;;;12.90;99.90;;;;;;4981069;28;20034;-55
2023/09/14 03:02:03;;;;;;;10.43;4.68;;;12.80;99.90;;;;;;4981600;28;20459;-55
2023/09/14 03:04:29;;;;;;;14.68;4.80;;;12.90;99.90;;;;;;4988650;28;20036;-58
2023/09/14 03:06:55;;;;;;;14.35;4.65;;;12.80;99.90;;;;;;4988332;28;20041;-52
2023/09/14 03:09:21;;;;;;;12.15;4.22;;;12.80;99.90;;;;;;4988915;28;20038;-57
2023/09/14 03:11:46;;;;;;;8.27;4.43;;;12.70;99.90;;;;;;4982966;28;20492;-54
2023/09/14 03:14:12;;;;;;;11.80;4.15;;;12.70;99.90;;;;;;4982045;28;20038;-55
2023/09/14 03:16:38;;;;;;;11.30;4.50;;;12.70;99.90;;;;;;4980279;28;20031;-55
2023/09/14 03:19:03;;;;;;;10.30;4.60;;;12.70;99.90;;;;;;4986705;28;20408;-55
2023/09/14 03:21:29;;;;;;;10.02;4.72;;;12.70;99.90;;;;;;4983817;28;20477;-54
2023/09/14 03:23:55;;;;;;;11.85;5.00;;;12.70;99.90;;;;;;4983410;28;20027;-55
2023/09/14 03:26:23;;;;;;;8.38;4.90;;;12.70;99.90;;;;;;4982537;28;20041;-52
2023/09/14 03:28:50;;;;;;;13.07;4.65;;;12.70;99.90;;;;;;4984196;28;20153;-55
2023/09/14 03:31:16;;;;;;;7.78;4.03;;;12.70;99.90;;;;;;4988880;28;20395;-55
2023/09/14 03:33:42;;;;;;;14.50;4.53;;;12.70;99.90;;;;;;4983909;28;20042;-58
2023/09/14 03:36:08;;;;;;;12.00;4.70;;;12.60;99.90;;;;;;4981917;28;20050;-55
2023/09/14 03:38:33;;;;;;;8.43;4.50;;;12.50;99.90;;;;;;4981341;28;20060;-55
2023/09/14 03:40:59;;;;;;;8.65;4.57;;;12.50;99.90;;;;;;4978810;28;20110;-55
2023/09/14 03:43:24;;;;;;;16.15;5.53;;;12.60;99.90;;;;;;4983217;28;20042;-55
2023/09/14 03:45:50;;;;;;;8.85;4.95;;;12.50;99.90;;;;;;4979453;28;20026;-53
2023/09/14 03:48:15;;;;;;;13.23;4.45;;;12.50;99.90;;;;;;4985685;28;20030;-56
2023/09/14 03:50:41;;;;;;;11.27;5.07;;;12.50;99.90;;;;;;4982837;28;20037;-55
2023/09/14 03:53:08;;;;;;;13.63;4.88;;;12.50;99.90;;;;;;4986151;28;20441;-58
2023/09/14 03:55:33;;;;;;;7.50;4.65;;;12.40;99.90;;;;;;4981282;28;20515;-57
2023/09/14 03:57:59;;;;;;;8.45;4.38;;;12.40;99.90;;;;;;4983190;28;20034;-59
2023/09/14 04:00:24;;;;;;;9.93;4.60;;;12.50;99.90;;;;;;4983070;28;20400;-55
2023/09/14 04:02:50;;;;;;;12.38;4.68;;;12.50;99.90;;;;;;4984450;28;21938;-55
2023/09/14 04:05:17;;;;;;;14.18;4.65;;;12.50;99.90;;;;;;4986603;28;20030;-58
2023/09/14 04:07:46;;;;;;;14.38;4.55;;;12.40;99.90;;;;;;4984630;28;20045;-57
2023/09/14 04:10:12;;;;;;;10.52;4.80;;;12.50;99.90;;;;;;4983303;28;20571;-58
2023/09/14 04:12:41;;;;;;;8.35;4.18;;;12.40;99.90;;;;;;4988484;28;20057;-57
2023/09/14 04:15:07;;;;;;;9.35;4.82;;;12.30;99.90;;;;;;4986372;28;20358;-59
2023/09/14 04:17:34;;;;;;;12.98;4.90;;;12.40;99.90;;;;;;4984947;28;20065;-59
2023/09/14 04:20:01;;;;;;;8.98;5.00;;;12.40;99.90;;;;;;4985438;28;20521;-60
2023/09/14 04:22:26;;;;;;;7.43;4.28;;;12.30;99.90;;;;;;4985188;28;20030;-55
2023/09/14 04:24:52;;;;;;;10.40;4.40;;;12.40;99.90;;;;;;4984816;28;20033;-58
2023/09/14 04:27:18;;;;;;;9.27;5.05;;;12.30;99.90;;;;;;4988661;28;20027;-53
2023/09/14 04:29:43;;;;;;;8.15;5.38;;;12.30;99.90;;;;;;4985332;28;20101;-56
2023/09/14 04:32:09;;;;;;;12.57;4.63;;;12.30;99.90;;;;;;4980543;28;20666;-55
2023/09/14 04:34:35;;;;;;;8.93;4.90;;;12.30;99.90;;;;;;4981708;28;20105;-57
2023/09/14 04:37:00;;;;;;;13.88;5.43;;;12.30;99.90;;;;;;4985831;28;20485;-59
2023/09/14 04:39:26;;;;;;;11.77;4.72;;;12.30;99.90;;;;;;4978461;28;20022;-58
2023/09/14 04:41:51;;;;;;;9.10;4.35;;;12.30;99.90;;;;;;4980231;28;20030;-59
2023/09/14 04:44:17;;;;;;;8.73;5.20;;;12.30;99.90;;;;;;4981695;28;20632;-58
2023/09/14 04:46:42;;;;;;;10.88;5.47;;;12.40;99.90;;;;;;4978522;28;20523;-58
2023/09/14 04:49:08;;;;;;;14.15;6.38;;;12.50;99.90;;;;;;4977658;28;20460;-58
2023/09/14 04:51:34;;;;;;;9.52;5.07;;;12.60;99.90;;;;;;4978481;28;20027;-59
2023/09/14 04:53:59;;;;;;;21.00;7.30;;;12.80;99.90;;;;;;4979543;28;20026;-58
2023/09/14 04:56:25;;;;;;;20.90;8.43;;;12.90;99.90;;;;;;4985444;28;20053;-60
2023/09/14 04:58:51;;;;;;;17.15;8.07;;;13.00;99.90;;;;;;4984543;28;20027;-57
2023/09/14 05:01:17;;;;;;;25.42;9.68;;;13.00;99.90;;;;;;4985101;28;20746;-58
2023/09/14 05:03:42;;;;;;;27.52;11.63;;;13.20;99.90;;;;;;4977472;28;20030;-57
2023/09/14 05:06:08;;;;;;;25.42;11.82;;;13.30;99.90;;;;;;4986526;28;20037;-56
2023/09/14 05:08:34;;;;;;;21.60;9.77;;;13.30;99.90;;;;;;4980582;28;20030;-53
2023/09/14 05:10:59;;;;;;;20.88;8.35;;;13.40;99.90;;;;;;4982482;28;20058;-57
2023/09/14 05:13:25;;;;;;;24.52;8.98;;;13.40;99.90;;;;;;4983119;28;20030;-58
2023/09/14 05:15:50;;;;;;;25.65;10.45;;;13.40;99.90;;;;;;4978350;28;20176;-56
2023/09/14 05:18:16;;;;;;;21.45;9.40;;;13.40;99.90;;;;;;4978488;28;20027;-58
2023/09/14 05:20:47;;;;;;;23.88;11.15;;;13.40;99.90;;;;;;4982616;28;20489;-58
2023/09/14 05:23:13;;;;;;;25.98;11.02;;;13.50;99.90;;;;;;4982606;28;20036;-55
2023/09/14 05:25:40;;;;;;;29.98;12.13;;;13.60;99.90;;;;;;4981734;28;20034;-57
2023/09/14 05:28:07;;;;;;;44.95;16.58;;;13.60;99.90;;;;;;4981328;28;20034;-60
2023/09/14 05:30:32;;;;;;;37.88;17.17;;;13.70;99.90;;;;;;4980525;28;20033;-61
2023/09/14 05:32:58;;;;;;;40.50;17.52;;;13.80;99.90;;;;;;4987970;28;20428;-57
2023/09/14 05:35:24;;;;;;;56.35;21.10;;;13.80;99.90;;;;;;4986410;28;20026;-57
2023/09/14 05:37:51;;;;;;;64.63;22.38;;;13.90;99.90;;;;;;4982708;28;20030;-57
2023/09/14 05:40:16;;;;;;;79.32;29.98;;;14.00;99.90;;;;;;4989330;28;20400;-59
2023/09/14 05:42:42;;;;;;;88.90;35.15;;;14.10;99.90;;;;;;4989397;28;20026;-60
2023/09/14 05:45:09;;;;;;;91.10;35.38;;;14.10;99.90;;;;;;4988701;28;20104;-58
2023/09/14 05:47:35;;;;;;;89.75;36.10;;;14.20;99.90;;;;;;4990986;28;20484;-59
2023/09/14 05:50:01;;;;;;;89.05;36.75;;;14.10;99.90;;;;;;4987163;28;20233;-59
2023/09/14 05:52:26;;;;;;;84.78;34.65;;;14.20;99.90;;;;;;4987805;28;20042;-56
2023/09/14 05:54:52;;;;;;;88.90;33.58;;;14.20;99.90;;;;;;4984410;28;20026;-57
2023/09/14 05:57:18;;;;;;;95.15;37.15;;;14.30;99.90;;;;;;4987035;28;20027;-59
2023/09/14 05:59:43;;;;;;;90.78;35.60;;;14.30;99.90;;;;;;4991062;28;20043;-59
2023/09/14 06:02:09;;;;;;;94.40;36.55;;;14.30;99.90;;;;;;4990659;28;20488;-58
2023/09/14 06:04:35;;;;;;;88.18;36.88;;;14.40;99.90;;;;;;4991010;28;20492;-60
2023/09/14 06:07:00;;;;;;;94.13;37.30;;;14.40;99.90;;;;;;4994849;28;20031;-58
2023/09/14 06:09:27;;;;;;;92.03;35.83;;;14.40;99.90;;;;;;4992917;28;20061;-60
2023/09/14 06:11:53;;;;;;;83.88;32.63;;;14.40;99.90;;;;;;4994748;28;20388;-59
2023/09/14 06:14:19;;;;;;;85.05;34.47;;;14.50;99.90;;;;;;4995182;28;20029;-60
2023/09/14 06:16:44;;;;;;;92.07;36.22;;;14.50;99.90;;;;;;4994676;28;20030;-57
2023/09/14 06:19:10;;;;;;;88.32;37.45;;;14.50;99.90;;;;;;4993755;28;20026;-58
2023/09/14 06:21:35;;;;;;;88.70;38.45;;;14.50;99.90;;;;;;4993553;28;20042;-58
2023/09/14 06:24:01;;;;;;;95.35;37.30;;;14.40;99.90;;;;;;4992735;28;20113;-60
2023/09/14 06:26:28;;;;;;;96.90;41.22;;;14.50;99.90;;;;;;4994955;28;20038;-60
2023/09/14 06:28:53;;;;;;;91.95;37.72;;;14.60;99.90;;;;;;4994101;28;20026;-61
2023/09/14 06:31:19;;;;;;;97.80;40.92;;;14.60;99.90;;;;;;4993939;28;20061;-56
2023/09/14 06:33:45;;;;;;;97.60;41.70;;;14.60;99.90;;;;;;4994854;28;20027;-58
2023/09/14 06:36:10;;;;;;;89.82;38.85;;;14.70;99.90;;;;;;4993014;28;20029;-55
2023/09/14 06:38:35;;;;;;;89.30;39.97;;;14.80;99.90;;;;;;4991302;28;20065;-60
2023/09/14 06:41:01;;;;;;;85.72;40.17;;;14.80;99.90;;;;;;4994412;28;20031;-58
2023/09/14 06:43:27;;;;;;;84.05;41.72;;;14.80;99.90;;;;;;4993368;28;20500;-59
2023/09/14 06:45:52;;;;;;;103.20;43.63;;;14.80;99.90;;;;;;4994175;28;20565;-56
2023/09/14 06:48:18;;;;;;;94.28;41.63;;;14.90;99.90;;;;;;4994224;28;20436;-59
2023/09/14 06:50:43;;;;;;;90.45;41.97;;;14.90;99.90;;;;;;4991910;28;20039;-60
2023/09/14 06:53:09;;;;;;;86.97;41.45;;;14.90;99.90;;;;;;4992210;28;20477;-59
2023/09/14 06:55:38;;;;;;;90.28;42.72;;;15.00;99.90;;;;;;4992363;28;20054;-58
2023/09/14 06:58:04;;;;;;;85.38;42.47;;;15.00;99.90;;;;;;4993447;28;20023;-60
2023/09/14 07:00:30;;;;;;;90.25;41.40;;;14.90;99.90;;;;;;4993975;28;20015;-58
2023/09/14 07:02:56;;;;;;;82.28;38.33;;;14.80;99.90;;;;;;4994113;28;20436;-61
2023/09/14 07:05:22;;;;;;;78.53;34.63;;;14.80;99.90;;;;;;4992356;28;20030;-58
2023/09/14 07:07:48;;;;;;;69.93;31.27;;;14.80;99.90;;;;;;4994261;28;20038;-56
2023/09/14 07:10:13;;;;;;;70.35;32.38;;;14.80;99.90;;;;;;4992490;28;20481;-57
2023/09/14 07:12:39;;;;;;;67.78;31.92;;;14.80;99.90;;;;;;4987428;28;20062;-56
2023/09/14 07:15:05;;;;;;;76.20;34.78;;;14.80;99.90;;;;;;4993327;28;20481;-56
2023/09/14 07:17:30;;;;;;;81.35;36.83;;;14.90;99.90;;;;;;4992614;28;20019;-54
2023/09/14 07:19:57;;;;;;;82.57;37.67;;;15.00;99.90;;;;;;4992143;28;20439;-57
2023/09/14 07:22:22;;;;;;;106.78;47.58;;;15.00;99.90;;;;;;4990723;28;20036;-58
2023/09/14 07:24:48;;;;;;;107.40;44.30;;;14.90;99.90;;;;;;4993150;28;20348;-60
2023/09/14 07:27:14;;;;;;;106.47;47.88;;;14.90;99.90;;;;;;4993202;28;20410;-59
2023/09/14 07:29:40;;;;;;;92.05;43.47;;;15.00;99.90;;;;;;4987126;28;20129;-60
2023/09/14 07:32:05;;;;;;;95.50;44.53;;;15.10;99.90;;;;;;4991765;28;20121;-59
2023/09/14 07:34:31;;;;;;;99.40;44.92;;;15.10;99.90;;;;;;4993462;28;20141;-57
2023/09/14 07:36:57;;;;;;;87.80;40.03;;;15.10;99.90;;;;;;4993172;28;20030;-57
2023/09/14 07:39:22;;;;;;;92.68;42.50;;;15.10;99.90;;;;;;4991621;28;20026;-60
2023/09/14 07:41:48;;;;;;;92.43;40.88;;;15.10;99.90;;;;;;4993913;28;20065;-60
2023/09/14 07:44:13;;;;;;;92.07;41.35;;;15.10;99.90;;;;;;4990440;28;20900;-57
2023/09/14 07:46:39;;;;;;;98.82;43.75;;;15.20;99.90;;;;;;4991893;28;20076;-58
2023/09/14 07:49:08;;;;;;;93.45;41.30;;;15.20;99.90;;;;;;4988184;28;20037;-58
2023/09/14 07:51:33;;;;;;;87.10;43.08;;;15.20;99.90;;;;;;4993314;28;20043;-59
2023/09/14 07:53:59;;;;;;;97.20;42.30;;;15.30;99.90;;;;;;4992979;28;20026;-59
2023/09/14 07:56:25;;;;;;;97.03;41.88;;;15.30;99.90;;;;;;4991918;28;20014;-57
2023/09/14 07:58:53;;;;;;;87.43;41.85;;;15.40;99.90;;;;;;4988958;28;20101;-54
2023/09/14 08:01:19;;;;;;;106.97;45.35;;;15.40;99.90;;;;;;4992013;28;20018;-56
2023/09/14 08:03:44;;;;;;;97.75;44.38;;;15.50;99.90;;;;;;4992969;28;20045;-60
2023/09/14 08:06:10;;;;;;;100.95;44.13;;;15.60;99.90;;;;;;4992967;28;20059;-59
2023/09/14 08:08:35;;;;;;;98.00;43.90;;;15.70;99.90;;;;;;4987870;28;20038;-58
2023/09/14 08:11:01;;;;;;;92.63;43.85;;;15.70;99.90;;;;;;4992771;28;20073;-59
2023/09/14 08:13:26;;;;;;;86.47;42.88;;;15.70;99.90;;;;;;4990093;28;20035;-59
2023/09/14 08:15:52;;;;;;;90.53;44.30;;;15.70;99.90;;;;;;4992887;28;20033;-58
2023/09/14 08:18:19;;;;;;;93.72;43.10;;;15.50;99.90;;;;;;4992584;28;20022;-60
2023/09/14 08:20:44;;;;;;;100.47;46.72;;;15.60;99.90;;;;;;4984611;28;20019;-59
2023/09/14 08:23:12;;;;;;;87.63;44.35;;;15.70;99.90;;;;;;4987106;28;20031;-59
2023/09/14 08:25:43;;;;;;;97.10;45.67;;;15.70;99.90;;;;;;4985669;28;20026;-57
2023/09/14 08:28:10;;;;;;;97.75;45.10;;;15.90;99.90;;;;;;4990795;28;20053;-59
2023/09/14 08:30:37;;;;;;;99.25;44.45;;;15.80;99.90;;;;;;4991692;28;20563;-61
2023/09/14 08:33:03;;;;;;;88.03;42.00;;;16.00;99.90;;;;;;4991026;28;20177;-60
2023/09/14 08:35:31;;;;;;;86.43;39.63;;;16.00;99.90;;;;;;4991735;28;20450;-59
2023/09/14 08:37:57;;;;;;;84.30;40.42;;;16.10;99.90;;;;;;4990840;28;20487;-58
2023/09/14 08:40:24;;;;;;;88.32;42.13;;;16.10;99.90;;;;;;4986992;28;20081;-60
2023/09/14 08:42:52;;;;;;;77.57;38.75;;;16.10;99.90;;;;;;4989325;28;20126;-57
2023/09/14 08:45:23;;;;;;;82.25;40.78;;;16.30;99.90;;;;;;4992041;28;20109;-54
2023/09/14 08:47:50;;;;;;;74.70;37.92;;;16.30;99.90;;;;;;4992069;28;20547;-60
2023/09/14 08:50:18;;;;;;;82.70;41.47;;;16.40;99.90;;;;;;4991999;28;20037;-60
2023/09/14 08:52:45;;;;;;;81.90;40.72;;;16.40;99.90;;;;;;4992375;28;20027;-54
2023/09/14 08:55:11;;;;;;;75.53;41.50;;;16.50;99.90;;;;;;4989158;28;20046;-59
2023/09/14 08:57:39;;;;;;;81.97;41.45;;;16.60;99.90;;;;;;4991891;28;20034;-59
2023/09/14 09:00:15;;;;;;;71.93;39.13;;;16.60;99.90;;;;;;4989922;28;20019;-61
2023/09/14 09:02:43;;;;;;;79.75;41.30;;;16.70;99.90;;;;;;4990889;28;20030;-58
2023/09/14 09:05:10;;;;;;;86.07;40.25;;;16.90;99.90;;;;;;4992378;28;20026;-60
2023/09/14 09:07:38;;;;;;;70.63;37.13;;;17.10;99.90;;;;;;4991065;28;20027;-60
2023/09/14 09:10:05;;;;;;;71.60;36.63;;;17.20;99.90;;;;;;4990340;28;20102;-60
2023/09/14 09:12:31;;;;;;;66.10;36.08;;;17.30;99.90;;;;;;4983586;28;20045;-59
2023/09/14 09:15:00;;;;;;;75.30;38.83;;;17.30;99.90;;;;;;4989734;28;20088;-60
2023/09/14 09:17:26;;;;;;;59.38;34.50;;;17.30;99.90;;;;;;4990334;28;20016;-59
2023/09/14 09:19:53;;;;;;;72.82;37.47;;;17.40;99.90;;;;;;4991491;28;20034;-61
2023/09/14 09:22:19;;;;;;;68.25;36.42;;;17.30;99.90;;;;;;4991947;28;20022;-60
2023/09/14 09:24:44;;;;;;;67.88;34.90;;;17.10;99.90;;;;;;4990261;28;20038;-60
2023/09/14 09:27:28;;;;;;;68.07;35.42;;;17.30;99.90;;;;;;4990001;28;20041;-60
2023/09/14 09:29:58;;;;;;;59.47;32.83;;;17.40;99.90;;;;;;4990326;28;20041;-60
2023/09/14 09:32:24;;;;;;;57.05;32.20;;;17.60;99.90;;;;;;4990781;28;20030;-60
2023/09/14 09:34:49;;;;;;;54.40;31.10;;;17.80;99.90;;;;;;4987407;28;20113;-59
2023/09/14 09:37:15;;;;;;;51.17;28.92;;;18.00;99.90;;;;;;4987412;28;20101;-60
2023/09/14 09:39:41;;;;;;;54.42;29.35;;;18.10;99.90;;;;;;4986346;28;20027;-56
2023/09/14 09:42:08;;;;;;;54.35;29.48;;;18.10;99.90;;;;;;4988589;28;20026;-60
2023/09/14 09:44:34;;;;;;;44.97;26.13;;;18.00;99.90;;;;;;4988337;28;20092;-59
2023/09/14 09:47:00;;;;;;;43.30;24.95;;;18.30;99.90;;;;;;4990663;28;20026;-58
2023/09/14 09:49:29;;;;;;;42.78;26.05;;;18.50;99.90;;;;;;4986367;28;20036;-57
2023/09/14 09:51:55;;;;;;;40.25;22.83;;;18.20;99.90;;;;;;4988369;28;20042;-60
2023/09/14 09:54:23;;;;;;;40.10;23.58;;;18.20;99.90;;;;;;4986485;28;20097;-58
2023/09/14 09:56:49;;;;;;;44.70;25.60;;;18.30;99.90;;;;;;4984182;28;20033;-60
2023/09/14 09:59:15;;;;;;;47.67;27.90;;;18.40;99.90;;;;;;4984587;28;20377;-60
2023/09/14 10:01:44;;;;;;;37.85;23.85;;;18.40;99.90;;;;;;4985616;28;20037;-59
2023/09/14 10:04:11;;;;;;;39.90;22.25;;;18.50;99.90;;;;;;4987325;28;20030;-60
2023/09/14 10:06:46;;;;;;;35.92;20.30;;;18.60;99.90;;;;;;4988759;28;20544;-60
2023/09/14 10:09:12;;;;;;;34.97;20.88;;;19.10;99.90;;;;;;4985819;28;20135;-60
2023/09/14 10:11:39;;;;;;;29.20;18.45;;;19.40;99.90;;;;;;4988522;28;20486;-57
2023/09/14 10:14:06;;;;;;;32.65;19.05;;;19.50;99.90;;;;;;4986242;28;20062;-58
2023/09/14 10:16:40;;;;;;;30.02;17.77;;;19.60;99.90;;;;;;4983340;28;20035;-59
2023/09/14 10:19:07;;;;;;;33.95;16.25;;;19.90;99.90;;;;;;4988405;28;20554;-58
2023/09/14 10:21:34;;;;;;;27.52;16.00;;;19.90;99.90;;;;;;4983621;28;20085;-59
2023/09/14 10:24:03;;;;;;;22.55;14.15;;;20.10;99.90;;;;;;4985533;28;20050;-59
2023/09/14 10:26:30;;;;;;;28.15;14.52;;;20.30;99.90;;;;;;4987236;28;20037;-58
2023/09/14 10:28:56;;;;;;;25.05;14.85;;;20.20;99.90;;;;;;4989155;28;20034;-57
2023/09/14 10:31:23;;;;;;;21.13;12.65;;;20.40;99.90;;;;;;4988491;28;20122;-54
2023/09/14 10:33:50;;;;;;;27.77;13.70;;;20.50;99.90;;;;;;4989566;28;20030;-59
2023/09/14 10:36:18;;;;;;;24.27;12.43;;;20.60;99.90;;;;;;4989337;28;20523;-58
2023/09/14 10:38:45;;;;;;;18.98;11.63;;;20.70;99.90;;;;;;4987047;28;20023;-59
2023/09/14 10:41:14;;;;;;;17.75;11.10;;;20.90;99.90;;;;;;4988050;28;20489;-59
2023/09/14 10:43:41;;;;;;;18.55;9.90;;;20.40;99.90;;;;;;4989240;28;20076;-60
2023/09/14 10:46:14;;;;;;;16.88;9.20;;;20.20;99.90;;;;;;4989615;28;20022;-60
2023/09/14 10:48:40;;;;;;;22.08;10.68;;;20.10;99.90;;;;;;4990075;28;20057;-60
2023/09/14 10:51:08;;;;;;;14.90;8.30;;;20.00;99.90;;;;;;4988383;28;20118;-59
2023/09/14 10:53:34;;;;;;;20.35;11.15;;;20.10;99.90;;;;;;4987082;28;20026;-59
2023/09/14 10:55:59;;;;;;;14.68;10.02;;;20.00;99.90;;;;;;4989963;28;20442;-59
2023/09/14 10:58:25;;;;;;;18.50;9.65;;;20.00;99.90;;;;;;4991210;28;20050;-59
2023/09/14 11:01:00;;;;;;;18.30;10.70;;;20.20;99.90;;;;;;4990814;28;20489;-58
2023/09/14 11:03:26;;;;;;;19.35;9.15;;;19.90;99.90;;;;;;4990596;28;20106;-58
2023/09/14 11:05:52;;;;;;;11.70;7.60;;;20.20;99.90;;;;;;4993447;28;20480;-59
2023/09/14 11:08:19;;;;;;;15.73;8.73;;;20.40;99.90;;;;;;4985574;28;20058;-58
2023/09/14 11:10:56;;;;;;;13.55;7.55;;;20.40;99.90;;;;;;4992498;28;20046;-59
2023/09/14 11:13:25;;;;;;;11.50;7.38;;;20.40;99.90;;;;;;5002538;28;20026;-59
2023/09/14 11:16:14;;;;;;;11.82;7.97;;;20.40;99.90;;;;;;4992867;28;20429;-59
2023/09/14 11:18:42;;;;;;;20.90;8.13;;;20.60;99.90;;;;;;4988871;28;20022;-58
2023/09/14 11:21:31;;;;;;;12.95;8.35;;;20.80;99.90;;;;;;4985973;28;20033;-57
2023/09/14 11:23:57;;;;;;;13.40;8.32;;;20.80;99.90;;;;;;4988562;28;20029;-56
2023/09/14 11:26:34;;;;;;;13.57;8.30;;;20.60;99.90;;;;;;4986037;28;20380;-57
2023/09/14 11:29:00;;;;;;;14.00;7.93;;;20.60;99.90;;;;;;4981549;28;20058;-58
2023/09/14 11:31:29;;;;;;;14.30;6.43;;;20.60;99.90;;;;;;4989339;28;20046;-57
2023/09/14 11:33:56;;;;;;;12.43;7.18;;;20.20;99.90;;;;;;4985261;28;20022;-57
2023/09/14 11:36:26;;;;;;;12.80;7.10;;;20.10;99.90;;;;;;4985341;28;20026;-58
2023/09/14 11:38:52;;;;;;;10.75;7.25;;;20.60;99.90;;;;;;4981628;28;20385;-59
2023/09/14 11:41:37;;;;;;;10.52;6.45;;;20.90;99.90;;;;;;4988503;28;20405;-60
2023/09/14 11:44:04;;;;;;;10.65;5.80;;;20.90;99.90;;;;;;4984923;28;20061;-57
2023/09/14 11:46:31;;;;;;;7.88;5.03;;;20.80;99.90;;;;;;4986084;28;20492;-59
2023/09/14 11:48:58;;;;;;;6.40;4.70;;;20.90;99.90;;;;;;4988224;28;20042;-59
2023/09/14 11:51:25;;;;;;;8.95;4.32;;;20.90;99.90;;;;;;4988479;28;20797;-58
2023/09/14 11:53:55;;;;;;;7.13;4.78;;;21.20;99.90;;;;;;4989580;28;20026;-58
2023/09/14 11:56:21;;;;;;;8.43;4.50;;;21.50;99.90;;;;;;4989156;28;20503;-57
2023/09/14 11:58:46;;;;;;;5.70;3.38;;;21.90;99.90;;;;;;4984150;28;20035;-59
2023/09/14 12:01:12;;;;;;;10.30;4.75;;;22.30;99.90;;;;;;4985461;28;20087;-59
2023/09/14 12:03:38;;;;;;;7.80;4.55;;;22.40;99.90;;;;;;4982389;28;20037;-57
2023/09/14 12:06:04;;;;;;;8.38;4.47;;;22.60;99.90;;;;;;4990000;28;20026;-59
2023/09/14 12:08:31;;;;;;;7.63;4.93;;;22.90;99.90;;;;;;4988544;28;20049;-58
2023/09/14 12:10:57;;;;;;;8.77;4.25;;;22.60;99.90;;;;;;4990092;28;20035;-56
2023/09/14 12:13:22;;;;;;;7.65;4.82;;;22.40;99.90;;;;;;4987537;28;20066;-59
2023/09/14 12:16:01;;;;;;;6.53;4.47;;;21.70;99.90;;;;;;4982740;28;20073;-57
2023/09/14 12:18:53;;;;;;;10.02;5.00;;;21.30;99.90;;;;;;4985031;28;20053;-59
2023/09/14 12:21:20;;;;;;;7.03;4.90;;;21.60;99.90;;;;;;4982798;28;20042;-60
2023/09/14 12:23:47;;;;;;;5.63;4.28;;;21.70;99.90;;;;;;4986572;28;20038;-55
2023/09/14 12:26:15;;;;;;;4.20;3.72;;;21.90;99.90;;;;;;4986000;28;20034;-58
2023/09/14 12:28:46;;;;;;;5.32;4.03;;;22.20;99.90;;;;;;4981788;28;20034;-59
2023/09/14 12:31:12;;;;;;;8.02;4.30;;;22.40;99.90;;;;;;4982108;28;20034;-59